createdAt,value
2019-01-11T00:00:33.372Z,45.00
2019-01-11T00:03:01.906Z,42.10
2019-01-11T00:05:30.356Z,32.07
2019-01-11T00:07:58.985Z,27.40
2019-01-11T00:10:27.751Z,29.33
2019-01-11T00:12:56.321Z,26.47
2019-01-11T00:15:25.055Z,25.93
2019-01-11T00:17:53.691Z,25.90
2019-01-11T00:20:22.074Z,26.60
2019-01-11T00:22:50.446Z,28.40
2019-01-11T00:25:19.093Z,28.97
2019-01-11T00:27:47.854Z,28.03
2019-01-11T00:30:16.318Z,30.87
2019-01-11T00:32:44.952Z,32.17
2019-01-11T00:35:13.597Z,25.17
2019-01-11T00:37:42.291Z,33.03
2019-01-11T00:40:11.101Z,35.33
2019-01-11T00:42:39.884Z,35.80
2019-01-11T00:45:08.575Z,37.67
2019-01-11T00:47:37.228Z,38.60
2019-01-11T00:50:05.623Z,35.43
2019-01-11T00:52:34.356Z,37.67
2019-01-11T00:55:03.790Z,41.13
2019-01-11T00:57:32.471Z,38.80
2019-01-11T01:00:01.200Z,41.33
2019-01-11T01:02:29.941Z,45.63
2019-01-11T01:04:58.800Z,44.93
2019-01-11T01:07:27.623Z,39.15
2019-01-11T01:09:56.175Z,39.13
2019-01-11T01:12:24.782Z,42.20
2019-01-11T01:14:53.547Z,42.43
2019-01-11T01:17:22.015Z,38.53
2019-01-11T01:19:50.490Z,35.87
2019-01-11T01:22:18.813Z,39.23
2019-01-11T01:24:47.674Z,36.37
2019-01-11T01:27:16.373Z,37.70
2019-01-11T01:29:44.974Z,35.70
2019-01-11T01:32:13.900Z,38.23
2019-01-11T01:34:42.547Z,37.20
2019-01-11T01:37:11.303Z,36.67
2019-01-11T01:39:39.586Z,37.10
2019-01-11T01:42:08.297Z,33.00
2019-01-11T01:44:37.001Z,33.30
2019-01-11T01:47:05.443Z,35.77
2019-01-11T01:49:33.976Z,32.53
2019-01-11T01:52:02.647Z,35.17
2019-01-11T01:54:32.569Z,34.03
2019-01-11T01:57:01.181Z,32.80
2019-01-11T01:59:29.884Z,33.67
2019-01-11T02:01:58.571Z,32.27
2019-01-11T02:04:27.041Z,35.47
2019-01-11T02:06:55.354Z,34.73
2019-01-11T02:09:24.047Z,35.33
2019-01-11T02:11:52.849Z,38.43
2019-01-11T02:14:22.151Z,35.10
2019-01-11T02:16:50.635Z,34.57
2019-01-11T02:19:19.276Z,35.80
2019-01-11T02:21:47.934Z,39.30
2019-01-11T02:24:16.622Z,37.40
2019-01-11T02:26:44.948Z,35.03
2019-01-11T02:29:13.707Z,37.40
2019-01-11T02:31:42.427Z,34.37
2019-01-11T02:34:10.998Z,36.60
2019-01-11T02:36:39.730Z,36.90
2019-01-11T02:39:08.372Z,32.27
2019-01-11T02:41:37.018Z,32.03
2019-01-11T02:44:05.399Z,31.97
2019-01-11T02:46:34.095Z,29.33
2019-01-11T02:49:02.813Z,28.40
2019-01-11T02:51:31.498Z,29.20
2019-01-11T02:54:00.104Z,26.07
2019-01-11T02:56:28.856Z,32.83
2019-01-11T02:58:57.515Z,26.63
2019-01-11T03:01:26.299Z,26.97
2019-01-11T03:03:54.927Z,25.47
2019-01-11T03:06:23.557Z,24.57
2019-01-11T03:08:51.995Z,27.37
2019-01-11T03:11:20.369Z,25.13
2019-01-11T03:13:49.190Z,30.33
2019-01-11T03:16:17.852Z,25.60
2019-01-11T03:18:46.900Z,23.03
2019-01-11T03:21:15.289Z,21.87
2019-01-11T03:23:44.097Z,23.70
2019-01-11T03:26:12.872Z,22.13
2019-01-11T03:28:41.276Z,21.73
2019-01-11T03:31:17.951Z,21.80
2019-01-11T03:33:46.690Z,21.60
2019-01-11T03:36:15.301Z,24.47
2019-01-11T03:38:43.929Z,24.10
2019-01-11T03:41:12.783Z,21.90
2019-01-11T03:43:41.551Z,23.80
2019-01-11T03:46:09.847Z,23.33
2019-01-11T03:48:38.606Z,21.67
2019-01-11T03:51:07.351Z,22.10
2019-01-11T03:53:36.045Z,23.00
2019-01-11T03:56:04.900Z,25.50
2019-01-11T03:58:33.227Z,20.53
2019-01-11T04:01:01.848Z,20.37
2019-01-11T04:03:31.530Z,23.20
2019-01-11T04:06:00.434Z,19.60
2019-01-11T04:08:28.894Z,21.37
2019-01-11T04:10:57.732Z,25.67
2019-01-11T04:13:30.461Z,19.87
2019-01-11T04:15:56.996Z,21.90
2019-01-11T04:18:32.323Z,23.90
2019-01-11T04:21:01.762Z,25.53
2019-01-11T04:23:30.288Z,19.47
2019-01-11T04:25:59.061Z,21.20
2019-01-11T04:28:27.707Z,22.13
2019-01-11T04:30:56.576Z,20.77
2019-01-11T04:33:25.274Z,20.90
2019-01-11T04:35:53.975Z,17.67
2019-01-11T04:38:22.773Z,21.20
2019-01-11T04:40:51.296Z,21.43
2019-01-11T04:43:19.914Z,20.00
2019-01-11T04:45:48.764Z,22.07
2019-01-11T04:48:17.447Z,17.97
2019-01-11T04:50:46.101Z,22.37
2019-01-11T04:53:14.808Z,21.67
2019-01-11T04:55:43.361Z,21.00
2019-01-11T04:58:11.570Z,23.53
2019-01-11T05:00:40.324Z,19.17
2019-01-11T05:03:08.945Z,22.33
2019-01-11T05:05:37.375Z,23.93
2019-01-11T05:08:05.916Z,23.13
2019-01-11T05:10:34.217Z,21.20
2019-01-11T05:13:31.024Z,20.97
2019-01-11T05:15:59.909Z,24.33
2019-01-11T05:18:28.744Z,21.70
2019-01-11T05:20:57.585Z,22.20
2019-01-11T05:23:26.188Z,22.27
2019-01-11T05:25:56.592Z,28.13
2019-01-11T05:28:26.453Z,24.70
2019-01-11T05:30:55.601Z,22.23
2019-01-11T05:33:24.219Z,22.07
2019-01-11T05:35:53.129Z,23.23
2019-01-11T05:38:21.787Z,22.53
2019-01-11T05:40:50.136Z,20.23
2019-01-11T05:43:19.028Z,20.77
2019-01-11T05:45:47.524Z,21.53
2019-01-11T05:48:16.291Z,21.40
2019-01-11T05:50:44.982Z,19.30
2019-01-11T05:53:13.624Z,18.97
2019-01-11T05:55:46.560Z,20.63
2019-01-11T05:58:44.238Z,20.50
2019-01-11T06:01:13.261Z,22.33
2019-01-11T06:03:41.899Z,23.37
2019-01-11T06:06:10.339Z,18.70
2019-01-11T06:08:39.028Z,23.50
2019-01-11T06:11:07.863Z,21.43
2019-01-11T06:13:36.656Z,19.27
2019-01-11T06:16:05.643Z,21.47
2019-01-11T06:18:34.497Z,28.17
2019-01-11T06:21:03.210Z,43.37
2019-01-11T06:23:31.822Z,78.77
2019-01-11T06:26:00.707Z,62.03
2019-01-11T06:28:29.223Z,53.47
2019-01-11T06:30:58.069Z,45.50
2019-01-11T06:33:26.530Z,43.77
2019-01-11T06:35:55.199Z,37.37
2019-01-11T06:38:23.856Z,33.37
2019-01-11T06:40:52.485Z,36.07
2019-01-11T06:43:20.896Z,31.63
2019-01-11T06:45:49.573Z,29.27
2019-01-11T06:48:37.527Z,30.63
2019-01-11T06:51:06.432Z,30.67
2019-01-11T06:53:34.833Z,26.97
2019-01-11T06:56:03.685Z,26.77
2019-01-11T06:58:31.946Z,31.60
2019-01-11T07:01:00.335Z,33.30
2019-01-11T07:03:28.946Z,34.63
2019-01-11T07:05:57.539Z,32.90
2019-01-11T07:08:25.823Z,30.60
2019-01-11T07:10:54.579Z,29.83
2019-01-11T07:13:23.121Z,26.47
2019-01-11T07:15:51.950Z,28.37
2019-01-11T07:18:20.270Z,24.63
2019-01-11T07:20:48.982Z,38.27
2019-01-11T07:23:17.798Z,34.23
2019-01-11T07:25:47.690Z,45.80
2019-01-11T07:28:16.377Z,37.73
2019-01-11T07:31:04.371Z,50.53
2019-01-11T07:33:33.189Z,40.10
2019-01-11T07:36:15.696Z,42.27
2019-01-11T07:38:44.468Z,38.40
2019-01-11T07:41:13.124Z,49.47
2019-01-11T07:43:41.460Z,64.40
2019-01-11T07:46:10.148Z,40.77
2019-01-11T07:48:38.749Z,46.13
2019-01-11T07:51:07.465Z,42.40
2019-01-11T07:53:36.217Z,51.03
2019-01-11T07:56:04.972Z,42.43
2019-01-11T07:58:33.635Z,41.17
2019-01-11T08:01:02.983Z,38.50
2019-01-11T08:03:31.640Z,32.40
2019-01-11T08:06:00.299Z,35.53
2019-01-11T08:08:29.033Z,33.83
2019-01-11T08:10:57.500Z,33.40
2019-01-11T08:13:25.871Z,53.57
2019-01-11T08:15:54.490Z,46.23
2019-01-11T08:18:23.193Z,27.37
2019-01-11T08:20:56.226Z,25.50
2019-01-11T08:23:22.503Z,20.53
2019-01-11T08:25:51.283Z,18.97
2019-01-11T08:28:20.357Z,15.60
2019-01-11T08:30:48.914Z,16.50
2019-01-11T08:33:18.893Z,16.70
2019-01-11T08:35:47.652Z,16.40
2019-01-11T08:38:16.152Z,17.57
2019-01-11T08:40:44.826Z,18.60
2019-01-11T08:43:13.243Z,16.73
2019-01-11T08:45:42.084Z,18.87
2019-01-11T08:48:12.221Z,16.63
2019-01-11T08:50:40.840Z,15.17
2019-01-11T08:53:09.496Z,14.90
2019-01-11T08:55:38.041Z,15.50
2019-01-11T08:58:07.876Z,15.07
2019-01-11T09:00:36.587Z,15.77
2019-01-11T09:03:05.392Z,15.70
2019-01-11T09:05:34.048Z,15.10
2019-01-11T09:08:02.696Z,13.87
2019-01-11T09:10:31.659Z,12.90
2019-01-11T09:13:00.171Z,13.23
2019-01-11T09:15:28.883Z,14.03
2019-01-11T09:18:17.067Z,14.77
2019-01-11T09:20:45.366Z,14.40
2019-01-11T09:23:14.159Z,14.33
2019-01-11T09:25:42.808Z,14.13
2019-01-11T09:28:11.607Z,14.17
2019-01-11T09:30:40.277Z,14.00
2019-01-11T09:33:09.112Z,14.90
2019-01-11T09:35:37.806Z,12.97
2019-01-11T09:38:06.490Z,13.70
2019-01-11T09:40:35.336Z,16.60
2019-01-11T09:43:04.011Z,19.63
2019-01-11T09:45:32.495Z,13.53
2019-01-11T09:48:01.143Z,13.63
2019-01-11T09:50:29.563Z,12.97
2019-01-11T09:52:58.400Z,14.00
2019-01-11T09:55:27.108Z,16.27
2019-01-11T09:57:55.807Z,12.33
2019-01-11T10:00:25.196Z,19.63
2019-01-11T10:02:59.364Z,19.07
2019-01-11T10:05:28.059Z,18.03
2019-01-11T10:07:56.665Z,15.60
2019-01-11T10:10:26.520Z,15.70
2019-01-11T10:12:55.180Z,17.87
2019-01-11T10:15:23.808Z,18.87
2019-01-11T10:17:52.577Z,17.73
2019-01-11T10:20:21.384Z,25.47
2019-01-11T10:22:50.113Z,17.50
2019-01-11T10:25:20.649Z,19.27
2019-01-11T10:27:49.291Z,13.67
2019-01-11T10:30:18.969Z,13.70
2019-01-11T10:32:47.709Z,16.13
2019-01-11T10:35:16.396Z,16.90
2019-01-11T10:37:45.191Z,15.43
2019-01-11T10:40:14.962Z,12.95
2019-01-11T10:42:43.942Z,14.80
2019-01-11T10:45:17.841Z,10.77
2019-01-11T10:47:46.623Z,12.17
2019-01-11T10:50:16.327Z,13.38
2019-01-11T10:52:44.747Z,13.13
2019-01-11T10:55:14.235Z,10.13
2019-01-11T10:57:43.239Z,13.00
2019-01-11T11:00:15.141Z,13.87
2019-01-11T11:02:43.725Z,13.43
2019-01-11T11:05:12.523Z,14.57
2019-01-11T11:07:41.107Z,19.73
2019-01-11T11:10:10.275Z,16.77
2019-01-11T11:12:39.026Z,14.23
2019-01-11T11:15:09.201Z,15.70
2019-01-11T11:17:37.996Z,14.93
2019-01-11T11:20:07.833Z,16.60
2019-01-11T11:22:36.268Z,16.37
2019-01-11T11:25:06.894Z,21.60
2019-01-11T11:27:35.531Z,18.63
2019-01-11T11:30:05.287Z,18.13
2019-01-11T11:32:47.305Z,20.20
2019-01-11T11:35:16.146Z,17.10
2019-01-11T11:37:45.197Z,14.07
2019-01-11T11:40:14.141Z,19.13
2019-01-11T11:42:42.737Z,18.60
2019-01-11T11:45:11.867Z,18.37
2019-01-11T11:47:40.674Z,17.37
2019-01-11T11:50:09.348Z,20.20
2019-01-11T11:52:38.162Z,22.43
2019-01-11T11:55:07.197Z,17.12
2019-01-11T11:57:35.940Z,19.37
2019-01-11T12:00:06.519Z,16.50
2019-01-11T12:02:35.048Z,19.40
2019-01-11T12:05:04.523Z,21.62
2019-01-11T12:07:33.159Z,18.10
2019-01-11T12:10:01.820Z,17.00
2019-01-11T12:12:31.420Z,16.57
2019-01-11T12:15:00.208Z,18.60
2019-01-11T12:17:28.796Z,18.43
2019-01-11T12:19:57.444Z,19.23
2019-01-11T12:22:26.262Z,17.30
2019-01-11T12:24:55.041Z,17.50
2019-01-11T12:27:23.459Z,21.87
2019-01-11T12:29:52.117Z,22.22
2019-01-11T12:32:20.730Z,17.30
2019-01-11T12:34:49.365Z,15.10
2019-01-11T12:37:17.924Z,14.37
2019-01-11T12:39:46.697Z,17.98
2019-01-11T12:42:15.204Z,15.23
2019-01-11T12:44:43.979Z,17.80
2019-01-11T12:47:12.484Z,13.00
2019-01-11T12:49:41.178Z,12.50
2019-01-11T12:52:09.825Z,14.33
2019-01-11T12:54:38.459Z,11.70
2019-01-11T12:57:07.149Z,13.17
2019-01-11T12:59:35.852Z,11.40
2019-01-11T13:02:04.976Z,13.40
2019-01-11T13:04:33.685Z,11.73
2019-01-11T13:07:02.290Z,15.43
2019-01-11T13:09:31.064Z,13.20
2019-01-11T13:11:59.821Z,10.60
2019-01-11T13:14:28.581Z,11.47
2019-01-11T13:16:57.143Z,7.60
2019-01-11T13:19:25.827Z,10.10
2019-01-11T13:22:00.503Z,9.93
2019-01-11T13:24:25.979Z,10.03
2019-01-11T13:26:54.886Z,10.07
2019-01-11T13:29:25.596Z,9.57
2019-01-11T13:31:54.189Z,9.17
2019-01-11T13:34:22.888Z,11.83
2019-01-11T13:36:54.031Z,9.83
2019-01-11T13:39:22.009Z,10.03
2019-01-11T13:41:50.633Z,8.63
2019-01-11T13:44:19.381Z,10.30
2019-01-11T13:46:48.284Z,11.20
2019-01-11T13:49:17.184Z,9.60
2019-01-11T13:51:45.915Z,9.87
2019-01-11T13:54:14.672Z,8.60
2019-01-11T13:56:43.069Z,8.60
2019-01-11T13:59:11.771Z,11.43
2019-01-11T14:01:41.505Z,10.23
2019-01-11T14:04:10.243Z,9.83
2019-01-11T14:06:38.949Z,10.80
2019-01-11T14:09:08.764Z,10.77
2019-01-11T14:11:37.451Z,10.77
2019-01-11T14:14:07.836Z,12.23
2019-01-11T14:16:36.699Z,10.47
2019-01-11T14:19:05.327Z,10.30
2019-01-11T14:21:34.037Z,11.30
2019-01-11T14:24:02.919Z,9.83
2019-01-11T14:26:32.564Z,11.33
2019-01-11T14:29:01.259Z,11.07
2019-01-11T14:31:29.892Z,15.70
2019-01-11T14:33:58.700Z,10.97
2019-01-11T14:36:27.289Z,9.63
2019-01-11T14:38:56.151Z,9.23
2019-01-11T14:41:25.431Z,9.50
2019-01-11T14:43:54.363Z,10.20
2019-01-11T14:46:23.035Z,10.00
2019-01-11T14:48:51.702Z,11.00
2019-01-11T14:51:21.562Z,9.43
2019-01-11T14:53:50.496Z,10.37
2019-01-11T14:56:18.931Z,10.77
2019-01-11T14:58:47.696Z,12.37
2019-01-11T15:01:16.355Z,11.00
2019-01-11T15:03:44.895Z,9.80
2019-01-11T15:06:13.581Z,11.00
2019-01-11T15:08:42.199Z,10.57
2019-01-11T15:11:10.919Z,11.50
2019-01-11T15:13:39.504Z,12.50
2019-01-11T15:16:08.213Z,12.97
2019-01-11T15:18:36.911Z,12.67
2019-01-11T15:21:06.769Z,14.17
2019-01-11T15:23:36.647Z,10.60
2019-01-11T15:26:05.483Z,15.90
2019-01-11T15:28:34.245Z,12.93
2019-01-11T15:31:02.929Z,11.03
2019-01-11T15:33:31.704Z,12.70
2019-01-11T15:36:00.332Z,10.90
2019-01-11T15:38:29.223Z,14.60
2019-01-11T15:40:57.932Z,15.47
2019-01-11T15:43:26.630Z,12.57
2019-01-11T15:46:02.612Z,14.33
2019-01-11T15:48:59.712Z,17.83
2019-01-11T15:51:30.312Z,15.67
2019-01-11T15:53:59.936Z,16.23
2019-01-11T15:56:28.692Z,17.43
2019-01-11T15:58:57.367Z,19.17
2019-01-11T16:01:26.295Z,17.90
2019-01-11T16:03:54.803Z,21.27
2019-01-11T16:06:31.062Z,20.00
2019-01-11T16:09:55.488Z,25.13
2019-01-11T16:12:25.991Z,28.70
2019-01-11T16:15:28.691Z,18.93
2019-01-11T16:17:59.893Z,19.07
2019-01-11T16:20:28.486Z,20.40
2019-01-11T16:22:57.332Z,22.93
2019-01-11T16:25:26.081Z,25.00
2019-01-11T16:27:55.031Z,32.20
2019-01-11T16:30:23.682Z,33.53
2019-01-11T16:32:52.370Z,27.10
2019-01-11T16:35:20.896Z,22.50
2019-01-11T16:37:49.548Z,30.53
2019-01-11T16:40:18.161Z,29.90
2019-01-11T16:42:46.847Z,35.73
2019-01-11T16:45:16.058Z,45.83
2019-01-11T16:47:44.675Z,44.63
2019-01-11T16:50:14.431Z,40.17
2019-01-11T16:52:46.377Z,42.43
2019-01-11T16:55:13.978Z,38.53
2019-01-11T16:57:42.664Z,32.93
2019-01-11T17:00:14.444Z,35.57
2019-01-11T17:02:43.243Z,34.00
2019-01-11T17:05:12.594Z,32.67
2019-01-11T17:07:41.351Z,35.87
2019-01-11T17:10:10.822Z,33.80
2019-01-11T17:12:41.981Z,42.33
2019-01-11T17:15:12.665Z,42.43
2019-01-11T17:17:41.199Z,39.53
2019-01-11T17:20:12.982Z,57.87
2019-01-11T17:22:41.529Z,78.77
2019-01-11T17:25:10.198Z,83.20
2019-01-11T17:27:39.840Z,56.03
2019-01-11T17:30:12.839Z,44.73
2019-01-11T17:32:41.648Z,43.00
2019-01-11T17:35:10.041Z,35.13
2019-01-11T17:37:39.795Z,47.77
2019-01-11T17:40:09.824Z,45.57
2019-01-11T17:42:38.642Z,47.40
2019-01-11T17:45:10.988Z,41.57
2019-01-11T17:47:39.783Z,61.43
2019-01-11T17:50:14.407Z,42.53
2019-01-11T17:52:43.084Z,45.17
2019-01-11T17:55:11.843Z,59.27
2019-01-11T17:57:40.743Z,63.60
2019-01-11T18:00:13.151Z,80.97
2019-01-11T18:02:41.916Z,77.30
2019-01-11T18:05:10.940Z,75.17
2019-01-11T18:07:39.708Z,78.80
2019-01-11T18:10:09.498Z,63.30
2019-01-11T18:12:38.328Z,61.57
2019-01-11T18:15:12.930Z,61.73
2019-01-11T18:17:41.608Z,54.93
2019-01-11T18:20:16.353Z,50.13
2019-01-11T18:22:45.172Z,43.67
2019-01-11T18:25:14.932Z,44.17
2019-01-11T18:27:43.795Z,45.73
2019-01-11T18:30:13.449Z,109.87
2019-01-11T18:32:42.061Z,93.67
2019-01-11T18:35:10.852Z,85.83
2019-01-11T18:37:39.447Z,76.07
2019-01-11T18:40:09.526Z,53.47
2019-01-11T18:42:39.383Z,48.27
2019-01-11T18:45:08.273Z,38.53
2019-01-11T18:47:36.594Z,43.57
2019-01-11T18:50:08.068Z,39.83
2019-01-11T18:52:36.715Z,44.03
2019-01-11T18:55:05.415Z,42.73
2019-01-11T18:57:34.179Z,45.37
2019-01-11T19:00:04.065Z,37.97
2019-01-11T19:02:32.409Z,44.07
2019-01-11T19:05:00.592Z,38.53
2019-01-11T19:07:29.189Z,30.30
2019-01-11T19:09:58.351Z,34.20
2019-01-11T19:12:26.790Z,34.87
2019-01-11T19:14:55.499Z,35.47
2019-01-11T19:17:24.227Z,32.97
2019-01-11T19:19:52.892Z,32.53
2019-01-11T19:22:21.195Z,30.67
2019-01-11T19:24:49.650Z,28.83
2019-01-11T19:27:18.350Z,27.93
2019-01-11T19:29:47.152Z,33.63
2019-01-11T19:32:15.967Z,33.03
2019-01-11T19:34:44.242Z,29.83
2019-01-11T19:37:12.933Z,30.67
2019-01-11T19:39:41.328Z,32.37
2019-01-11T19:42:10.107Z,31.67
2019-01-11T19:44:38.801Z,33.30
2019-01-11T19:47:07.428Z,40.30
2019-01-11T19:49:36.000Z,34.97
2019-01-11T19:52:04.381Z,33.97
2019-01-11T19:54:33.000Z,30.70
2019-01-11T19:57:01.662Z,29.27
2019-01-11T19:59:30.381Z,23.70
2019-01-11T20:01:59.087Z,26.53
2019-01-11T20:04:27.737Z,24.60
2019-01-11T20:06:56.294Z,21.30
2019-01-11T20:09:25.025Z,24.57
2019-01-11T20:11:53.338Z,24.73
2019-01-11T20:14:22.190Z,21.10
2019-01-11T20:16:50.775Z,24.70
2019-01-11T20:19:19.529Z,23.70
2019-01-11T20:21:48.185Z,25.13
2019-01-11T20:24:17.024Z,28.37
2019-01-11T20:26:46.676Z,31.50
2019-01-11T20:29:15.306Z,28.30
2019-01-11T20:31:44.085Z,26.60
2019-01-11T20:34:12.713Z,23.93
2019-01-11T20:36:46.132Z,30.07
2019-01-11T20:39:14.660Z,29.53
2019-01-11T20:41:43.409Z,27.97
2019-01-11T20:44:11.792Z,29.37
2019-01-11T20:46:40.418Z,41.97
2019-01-11T20:49:10.197Z,35.80
2019-01-11T20:51:38.831Z,35.90
2019-01-11T20:54:07.182Z,35.20
2019-01-11T20:56:36.480Z,31.73
2019-01-11T20:59:05.279Z,35.47
2019-01-11T21:01:34.057Z,38.33
2019-01-11T21:04:02.596Z,33.97
2019-01-11T21:06:31.319Z,38.50
2019-01-11T21:09:00.064Z,31.57
2019-01-11T21:11:28.689Z,33.13
2019-01-11T21:13:57.440Z,37.30
2019-01-11T21:16:26.135Z,40.27
2019-01-11T21:18:54.940Z,41.23
2019-01-11T21:21:23.721Z,37.63
2019-01-11T21:23:52.504Z,38.40
2019-01-11T21:26:21.288Z,39.50
2019-01-11T21:28:50.000Z,35.77
2019-01-11T21:31:18.613Z,44.27
2019-01-11T21:33:47.306Z,47.83
2019-01-11T21:36:15.950Z,44.50
2019-01-11T21:38:44.744Z,42.13
2019-01-11T21:41:13.536Z,46.73
2019-01-11T21:43:42.212Z,43.93
2019-01-11T21:46:11.019Z,38.07
2019-01-11T21:48:39.653Z,37.97
2019-01-11T21:51:08.447Z,41.63
2019-01-11T21:53:36.965Z,32.00
2019-01-11T21:56:05.745Z,47.77
2019-01-11T21:58:34.344Z,32.13
2019-01-11T22:01:03.249Z,34.20
2019-01-11T22:03:31.971Z,36.23
2019-01-11T22:06:00.637Z,35.30
2019-01-11T22:08:29.343Z,36.17
2019-01-11T22:10:58.100Z,34.03
2019-01-11T22:13:26.683Z,36.13
2019-01-11T22:15:55.483Z,49.27
2019-01-11T22:18:24.189Z,39.13
2019-01-11T22:20:52.986Z,38.63
2019-01-11T22:23:23.807Z,41.93
2019-01-11T22:25:52.076Z,60.10
2019-01-11T22:28:20.714Z,85.50
2019-01-11T22:30:49.385Z,47.47
2019-01-11T22:33:17.927Z,46.93
2019-01-11T22:35:46.319Z,50.87
2019-01-11T22:38:15.205Z,68.53
2019-01-11T22:40:43.747Z,57.93
2019-01-11T22:43:12.239Z,46.23
2019-01-11T22:45:41.000Z,39.87
2019-01-11T22:48:09.526Z,40.83
2019-01-11T22:50:38.275Z,40.33
2019-01-11T22:53:06.865Z,39.70
2019-01-11T22:55:35.428Z,36.63
2019-01-11T22:58:04.352Z,38.77
2019-01-11T23:00:54.447Z,32.97
2019-01-11T23:03:26.900Z,38.80
2019-01-11T23:06:00.140Z,32.07
2019-01-11T23:08:28.656Z,33.43
2019-01-11T23:11:45.909Z,36.40
2019-01-11T23:14:14.576Z,35.37
2019-01-11T23:17:21.338Z,37.67
2019-01-11T23:19:49.977Z,43.63
2019-01-11T23:22:18.397Z,38.70
2019-01-11T23:24:47.345Z,38.70
2019-01-11T23:27:16.232Z,37.10
2019-01-11T23:29:45.139Z,39.63
2019-01-11T23:32:13.941Z,39.37
2019-01-11T23:34:43.018Z,35.40
2019-01-11T23:37:11.891Z,38.03
2019-01-11T23:39:40.541Z,43.93
2019-01-11T23:42:09.333Z,35.47
2019-01-11T23:44:37.931Z,40.90
2019-01-11T23:47:06.489Z,33.00
2019-01-11T23:49:35.289Z,39.93
2019-01-11T23:52:04.016Z,34.10
2019-01-11T23:54:32.685Z,29.13
2019-01-11T23:57:01.152Z,28.50
2019-01-11T23:59:29.898Z,26.87
